sensor_id;sensor_type;location;lat;lon;timestamp;temperature;humidity
41060;DHT22;26811;53.160;8.202;2023-12-20T00:04:30;5.20;99.90
41060;DHT22;26811;53.160;8.202;2023-12-20T00:09:31;5.30;99.90
41060;DHT22;26811;53.160;8.202;2023-12-20T00:14:31;5.20;99.90
41060;DHT22;26811;53.160;8.202;2023-12-20T00:19:33;5.20;99.90
41060;DHT22;26811;53.160;8.202;2023-12-20T00:24:34;5.20;99.90
41060;DHT22;26811;53.160;8.202;2023-12-20T00:29:35;5.20;99.90
41060;DHT22;26811;53.160;8.202;2023-12-20T00:34:35;5.20;99.90
41060;DHT22;26811;53.160;8.202;2023-12-20T00:39:36;5.20;99.90
41060;DHT22;26811;53.160;8.202;2023-12-20T00:44:36;5.20;99.90
41060;DHT22;26811;53.160;8.202;2023-12-20T00:49:37;5.20;99.90
41060;DHT22;26811;53.160;8.202;2023-12-20T00:54:37;5.20;99.90
41060;DHT22;26811;53.160;8.202;2023-12-20T00:59:38;5.20;99.90
41060;DHT22;26811;53.160;8.202;2023-12-20T01:04:38;5.20;99.90
41060;DHT22;26811;53.160;8.202;2023-12-20T01:09:39;5.20;99.90
41060;DHT22;26811;53.160;8.202;2023-12-20T01:14:39;5.20;99.90
41060;DHT22;26811;53.160;8.202;2023-12-20T01:19:40;5.20;99.90
41060;DHT22;26811;53.160;8.202;2023-12-20T01:24:40;5.20;99.90
41060;DHT22;26811;53.160;8.202;2023-12-20T01:29:41;5.20;99.90
41060;DHT22;26811;53.160;8.202;2023-12-20T01:34:41;5.10;99.90
41060;DHT22;26811;53.160;8.202;2023-12-20T01:39:42;5.10;99.90
41060;DHT22;26811;53.160;8.202;2023-12-20T01:44:42;5.10;99.90
41060;DHT22;26811;53.160;8.202;2023-12-20T01:49:43;5.10;99.90
41060;DHT22;26811;53.160;8.202;2023-12-20T01:54:44;5.10;99.90
41060;DHT22;26811;53.160;8.202;2023-12-20T01:59:45;5.10;99.90
41060;DHT22;26811;53.160;8.202;2023-12-20T02:04:45;5.10;99.90
41060;DHT22;26811;53.160;8.202;2023-12-20T02:09:46;5.20;99.90
41060;DHT22;26811;53.160;8.202;2023-12-20T02:14:46;5.10;99.90
41060;DHT22;26811;53.160;8.202;2023-12-20T02:19:48;5.10;99.90
41060;DHT22;26811;53.160;8.202;2023-12-20T02:24:48;5.10;99.90
41060;DHT22;26811;53.160;8.202;2023-12-20T02:29:50;5.20;99.90
41060;DHT22;26811;53.160;8.202;2023-12-20T02:34:51;5.20;99.90
41060;DHT22;26811;53.160;8.202;2023-12-20T02:39:51;5.20;99.90
41060;DHT22;26811;53.160;8.202;2023-12-20T02:44:52;5.20;99.90
41060;DHT22;26811;53.160;8.202;2023-12-20T02:49:52;5.20;99.90
41060;DHT22;26811;53.160;8.202;2023-12-20T02:54:53;5.30;99.90
41060;DHT22;26811;53.160;8.202;2023-12-20T02:59:53;5.30;99.90
41060;DHT22;26811;53.160;8.202;2023-12-20T03:04:54;5.30;99.90
41060;DHT22;26811;53.160;8.202;2023-12-20T03:09:55;5.30;99.90
41060;DHT22;26811;53.160;8.202;2023-12-20T03:14:55;5.40;99.90
41060;DHT22;26811;53.160;8.202;2023-12-20T03:19:56;5.40;99.90
41060;DHT22;26811;53.160;8.202;2023-12-20T03:24:56;5.40;99.90
41060;DHT22;26811;53.160;8.202;2023-12-20T03:29:57;5.40;99.90
41060;DHT22;26811;53.160;8.202;2023-12-20T03:34:57;5.50;99.90
41060;DHT22;26811;53.160;8.202;2023-12-20T03:39:58;5.50;99.90
41060;DHT22;26811;53.160;8.202;2023-12-20T03:44:59;5.60;99.90
41060;DHT22;26811;53.160;8.202;2023-12-20T03:49:59;5.60;99.90
41060;DHT22;26811;53.160;8.202;2023-12-20T03:55:00;5.60;99.90
41060;DHT22;26811;53.160;8.202;2023-12-20T04:00:00;5.60;99.90
41060;DHT22;26811;53.160;8.202;2023-12-20T04:05:01;5.60;99.90
41060;DHT22;26811;53.160;8.202;2023-12-20T04:10:02;5.60;99.90
41060;DHT22;26811;53.160;8.202;2023-12-20T04:15:04;5.50;99.90
41060;DHT22;26811;53.160;8.202;2023-12-20T04:20:09;5.60;99.90
41060;DHT22;26811;53.160;8.202;2023-12-20T04:25:10;5.60;99.90
41060;DHT22;26811;53.160;8.202;2023-12-20T04:30:11;5.60;99.90
41060;DHT22;26811;53.160;8.202;2023-12-20T04:35:11;5.50;99.90
41060;DHT22;26811;53.160;8.202;2023-12-20T04:40:12;5.50;99.90
41060;DHT22;26811;53.160;8.202;2023-12-20T04:45:13;5.50;99.90
41060;DHT22;26811;53.160;8.202;2023-12-20T04:50:15;5.60;99.90
41060;DHT22;26811;53.160;8.202;2023-12-20T04:55:16;5.60;99.90
41060;DHT22;26811;53.160;8.202;2023-12-20T05:00:17;5.70;99.90
41060;DHT22;26811;53.160;8.202;2023-12-20T05:05:18;5.70;99.90
41060;DHT22;26811;53.160;8.202;2023-12-20T05:10:18;5.70;99.90
41060;DHT22;26811;53.160;8.202;2023-12-20T05:15:19;5.70;99.90
41060;DHT22;26811;53.160;8.202;2023-12-20T05:20:19;5.70;99.90
41060;DHT22;26811;53.160;8.202;2023-12-20T05:25:20;5.70;99.90
41060;DHT22;26811;53.160;8.202;2023-12-20T05:30:20;5.80;99.90
41060;DHT22;26811;53.160;8.202;2023-12-20T05:35:21;5.80;99.90
41060;DHT22;26811;53.160;8.202;2023-12-20T05:40:23;5.80;99.90
41060;DHT22;26811;53.160;8.202;2023-12-20T05:45:24;5.80;99.90
41060;DHT22;26811;53.160;8.202;2023-12-20T05:50:24;5.80;99.90
41060;DHT22;26811;53.160;8.202;2023-12-20T05:55:25;5.90;99.90
41060;DHT22;26811;53.160;8.202;2023-12-20T06:00:25;6.00;99.90
41060;DHT22;26811;53.160;8.202;2023-12-20T06:05:26;6.00;99.90
41060;DHT22;26811;53.160;8.202;2023-12-20T06:10:27;6.00;99.90
41060;DHT22;26811;53.160;8.202;2023-12-20T06:15:27;6.00;99.90
41060;DHT22;26811;53.160;8.202;2023-12-20T06:20:28;6.00;99.90
41060;DHT22;26811;53.160;8.202;2023-12-20T06:25:28;6.00;99.90
41060;DHT22;26811;53.160;8.202;2023-12-20T06:30:29;6.00;99.90
41060;DHT22;26811;53.160;8.202;2023-12-20T06:35:29;5.90;99.90
41060;DHT22;26811;53.160;8.202;2023-12-20T06:40:30;6.00;99.90
41060;DHT22;26811;53.160;8.202;2023-12-20T06:45:30;6.00;99.90
41060;DHT22;26811;53.160;8.202;2023-12-20T06:50:31;6.00;99.90
41060;DHT22;26811;53.160;8.202;2023-12-20T06:55:31;6.10;99.90
41060;DHT22;26811;53.160;8.202;2023-12-20T07:00:32;6.10;99.90
41060;DHT22;26811;53.160;8.202;2023-12-20T07:05:33;6.10;99.90
41060;DHT22;26811;53.160;8.202;2023-12-20T07:10:34;6.10;99.90
41060;DHT22;26811;53.160;8.202;2023-12-20T07:15:34;6.10;99.90
41060;DHT22;26811;53.160;8.202;2023-12-20T07:20:37;6.20;99.90
41060;DHT22;26811;53.160;8.202;2023-12-20T07:25:37;6.20;99.90
41060;DHT22;26811;53.160;8.202;2023-12-20T07:30:38;6.20;99.90
41060;DHT22;26811;53.160;8.202;2023-12-20T07:35:39;6.20;99.90
41060;DHT22;26811;53.160;8.202;2023-12-20T07:40:39;6.30;99.90
41060;DHT22;26811;53.160;8.202;2023-12-20T07:45:40;6.30;99.90
41060;DHT22;26811;53.160;8.202;2023-12-20T07:50:41;6.30;99.90
41060;DHT22;26811;53.160;8.202;2023-12-20T07:55:41;6.30;99.90
41060;DHT22;26811;53.160;8.202;2023-12-20T08:00:43;6.40;99.90
41060;DHT22;26811;53.160;8.202;2023-12-20T08:05:44;6.40;99.90
41060;DHT22;26811;53.160;8.202;2023-12-20T08:10:45;6.40;99.90
41060;DHT22;26811;53.160;8.202;2023-12-20T08:15:45;6.50;99.90
41060;DHT22;26811;53.160;8.202;2023-12-20T08:20:46;6.50;99.90
41060;DHT22;26811;53.160;8.202;2023-12-20T08:25:47;6.50;99.90
41060;DHT22;26811;53.160;8.202;2023-12-20T08:30:49;6.50;99.90
41060;DHT22;26811;53.160;8.202;2023-12-20T08:35:53;6.60;99.90
41060;DHT22;26811;53.160;8.202;2023-12-20T08:40:54;6.60;99.90
41060;DHT22;26811;53.160;8.202;2023-12-20T08:45:54;6.60;99.90
41060;DHT22;26811;53.160;8.202;2023-12-20T08:50:55;6.60;99.90
41060;DHT22;26811;53.160;8.202;2023-12-20T08:55:56;6.60;99.90
41060;DHT22;26811;53.160;8.202;2023-12-20T09:00:58;6.70;99.90
41060;DHT22;26811;53.160;8.202;2023-12-20T09:05:58;6.70;99.90
41060;DHT22;26811;53.160;8.202;2023-12-20T09:11:02;6.70;99.90
41060;DHT22;26811;53.160;8.202;2023-12-20T09:16:03;6.80;99.90
41060;DHT22;26811;53.160;8.202;2023-12-20T09:21:07;6.90;99.90
41060;DHT22;26811;53.160;8.202;2023-12-20T09:26:07;6.80;99.90
41060;DHT22;26811;53.160;8.202;2023-12-20T09:31:08;6.20;99.90
41060;DHT22;26811;53.160;8.202;2023-12-20T09:36:08;5.70;99.90
41060;DHT22;26811;53.160;8.202;2023-12-20T09:41:09;5.40;99.90
41060;DHT22;26811;53.160;8.202;2023-12-20T09:46:12;5.20;99.90
41060;DHT22;26811;53.160;8.202;2023-12-20T09:51:15;5.10;99.90
41060;DHT22;26811;53.160;8.202;2023-12-20T09:56:16;5.10;99.90
41060;DHT22;26811;53.160;8.202;2023-12-20T10:01:17;5.20;99.90
41060;DHT22;26811;53.160;8.202;2023-12-20T10:06:18;5.20;99.90
41060;DHT22;26811;53.160;8.202;2023-12-20T10:11:19;5.20;99.90
41060;DHT22;26811;53.160;8.202;2023-12-20T10:16:24;5.30;99.90
41060;DHT22;26811;53.160;8.202;2023-12-20T10:21:26;5.40;99.90
41060;DHT22;26811;53.160;8.202;2023-12-20T10:26:26;5.50;99.90
41060;DHT22;26811;53.160;8.202;2023-12-20T10:31:29;5.60;99.90
41060;DHT22;26811;53.160;8.202;2023-12-20T10:36:32;5.60;99.90
41060;DHT22;26811;53.160;8.202;2023-12-20T10:41:33;5.50;99.90
41060;DHT22;26811;53.160;8.202;2023-12-20T10:46:34;5.60;99.90
41060;DHT22;26811;53.160;8.202;2023-12-20T10:51:34;5.80;99.90
41060;DHT22;26811;53.160;8.202;2023-12-20T10:56:36;5.90;99.90
41060;DHT22;26811;53.160;8.202;2023-12-20T11:01:39;5.90;99.90
41060;DHT22;26811;53.160;8.202;2023-12-20T11:11:59;6.00;99.90
41060;DHT22;26811;53.160;8.202;2023-12-20T11:17:06;5.90;99.90
41060;DHT22;26811;53.160;8.202;2023-12-20T11:22:07;6.00;99.90
41060;DHT22;26811;53.160;8.202;2023-12-20T11:27:07;6.00;99.90
41060;DHT22;26811;53.160;8.202;2023-12-20T11:37:31;6.10;99.90
41060;DHT22;26811;53.160;8.202;2023-12-20T11:42:45;6.20;99.90
41060;DHT22;26811;53.160;8.202;2023-12-20T11:47:47;6.20;99.90
41060;DHT22;26811;53.160;8.202;2023-12-20T11:52:51;6.30;99.90
41060;DHT22;26811;53.160;8.202;2023-12-20T11:57:52;6.40;99.90
41060;DHT22;26811;53.160;8.202;2023-12-20T12:02:57;6.50;99.90
41060;DHT22;26811;53.160;8.202;2023-12-20T12:07:58;6.70;99.90
41060;DHT22;26811;53.160;8.202;2023-12-20T12:12:59;6.80;99.90
41060;DHT22;26811;53.160;8.202;2023-12-20T12:18:01;6.80;99.90
41060;DHT22;26811;53.160;8.202;2023-12-20T12:23:03;6.90;99.90
41060;DHT22;26811;53.160;8.202;2023-12-20T12:28:05;6.90;99.90
41060;DHT22;26811;53.160;8.202;2023-12-20T12:33:05;6.90;99.90
41060;DHT22;26811;53.160;8.202;2023-12-20T12:38:07;6.70;99.90
41060;DHT22;26811;53.160;8.202;2023-12-20T12:43:08;6.50;99.90
41060;DHT22;26811;53.160;8.202;2023-12-20T12:48:08;6.20;99.90
41060;DHT22;26811;53.160;8.202;2023-12-20T12:53:09;6.10;99.90
41060;DHT22;26811;53.160;8.202;2023-12-20T12:58:09;5.90;99.90
41060;DHT22;26811;53.160;8.202;2023-12-20T13:03:10;5.80;99.90
41060;DHT22;26811;53.160;8.202;2023-12-20T13:08:11;5.90;99.90
41060;DHT22;26811;53.160;8.202;2023-12-20T13:13:12;6.10;99.90
41060;DHT22;26811;53.160;8.202;2023-12-20T13:18:13;6.20;99.90
41060;DHT22;26811;53.160;8.202;2023-12-20T13:23:13;6.20;99.90
41060;DHT22;26811;53.160;8.202;2023-12-20T13:28:14;6.20;99.90
41060;DHT22;26811;53.160;8.202;2023-12-20T13:33:14;6.20;99.90
41060;DHT22;26811;53.160;8.202;2023-12-20T13:38:15;6.30;99.90
41060;DHT22;26811;53.160;8.202;2023-12-20T13:43:15;6.30;99.90
41060;DHT22;26811;53.160;8.202;2023-12-20T13:48:21;6.30;99.90
41060;DHT22;26811;53.160;8.202;2023-12-20T13:53:21;6.30;99.90
41060;DHT22;26811;53.160;8.202;2023-12-20T13:58:22;6.20;99.90
41060;DHT22;26811;53.160;8.202;2023-12-20T14:03:22;6.20;99.90
41060;DHT22;26811;53.160;8.202;2023-12-20T14:08:23;6.20;99.90
41060;DHT22;26811;53.160;8.202;2023-12-20T14:13:27;6.20;99.90
41060;DHT22;26811;53.160;8.202;2023-12-20T14:18:27;6.20;99.90
41060;DHT22;26811;53.160;8.202;2023-12-20T14:23:28;6.10;99.90
41060;DHT22;26811;53.160;8.202;2023-12-20T14:28:28;6.10;99.90
41060;DHT22;26811;53.160;8.202;2023-12-20T14:33:29;6.10;99.90
41060;DHT22;26811;53.160;8.202;2023-12-20T14:38:30;6.10;99.90
41060;DHT22;26811;53.160;8.202;2023-12-20T14:43:30;6.00;99.90
41060;DHT22;26811;53.160;8.202;2023-12-20T14:48:31;6.10;99.90
41060;DHT22;26811;53.160;8.202;2023-12-20T14:53:32;6.10;99.90
41060;DHT22;26811;53.160;8.202;2023-12-20T14:58:33;6.10;99.90
41060;DHT22;26811;53.160;8.202;2023-12-20T15:03:35;6.10;99.90
41060;DHT22;26811;53.160;8.202;2023-12-20T15:08:35;6.10;99.90
41060;DHT22;26811;53.160;8.202;2023-12-20T15:13:36;6.10;99.90
41060;DHT22;26811;53.160;8.202;2023-12-20T15:18:36;6.20;99.90
41060;DHT22;26811;53.160;8.202;2023-12-20T15:23:37;6.20;99.90
41060;DHT22;26811;53.160;8.202;2023-12-20T15:28:38;6.20;99.90
41060;DHT22;26811;53.160;8.202;2023-12-20T15:33:39;6.00;99.90
41060;DHT22;26811;53.160;8.202;2023-12-20T15:38:39;5.90;99.90
41060;DHT22;26811;53.160;8.202;2023-12-20T15:43:40;5.90;99.90
41060;DHT22;26811;53.160;8.202;2023-12-20T15:48:41;5.90;99.90
41060;DHT22;26811;53.160;8.202;2023-12-20T15:53:42;5.90;99.90
41060;DHT22;26811;53.160;8.202;2023-12-20T15:58:43;6.00;99.90
41060;DHT22;26811;53.160;8.202;2023-12-20T16:03:44;6.00;99.90
41060;DHT22;26811;53.160;8.202;2023-12-20T16:08:45;5.90;99.90
41060;DHT22;26811;53.160;8.202;2023-12-20T16:13:45;5.90;99.90
41060;DHT22;26811;53.160;8.202;2023-12-20T16:18:46;5.80;99.90
41060;DHT22;26811;53.160;8.202;2023-12-20T16:23:47;5.70;99.90
41060;DHT22;26811;53.160;8.202;2023-12-20T16:28:47;5.70;99.90
41060;DHT22;26811;53.160;8.202;2023-12-20T16:33:48;5.60;99.90
41060;DHT22;26811;53.160;8.202;2023-12-20T16:38:48;5.60;99.90
41060;DHT22;26811;53.160;8.202;2023-12-20T16:43:49;5.60;99.90
41060;DHT22;26811;53.160;8.202;2023-12-20T16:48:49;5.60;99.90
41060;DHT22;26811;53.160;8.202;2023-12-20T17:04:45;5.60;99.90
41060;DHT22;26811;53.160;8.202;2023-12-20T17:09:54;5.70;99.90
41060;DHT22;26811;53.160;8.202;2023-12-20T17:14:57;5.70;99.90
41060;DHT22;26811;53.160;8.202;2023-12-20T17:20:30;5.70;99.90
41060;DHT22;26811;53.160;8.202;2023-12-20T17:25:33;5.70;99.90
41060;DHT22;26811;53.160;8.202;2023-12-20T17:30:39;5.70;99.90
41060;DHT22;26811;53.160;8.202;2023-12-20T17:35:43;5.70;99.90
41060;DHT22;26811;53.160;8.202;2023-12-20T17:40:44;5.70;99.90
41060;DHT22;26811;53.160;8.202;2023-12-20T17:45:48;5.80;99.90
41060;DHT22;26811;53.160;8.202;2023-12-20T17:51:06;5.80;99.90
41060;DHT22;26811;53.160;8.202;2023-12-20T17:56:07;5.80;99.90
41060;DHT22;26811;53.160;8.202;2023-12-20T18:01:31;5.80;99.90
41060;DHT22;26811;53.160;8.202;2023-12-20T18:06:32;5.80;99.90
41060;DHT22;26811;53.160;8.202;2023-12-20T18:11:41;5.80;99.90
41060;DHT22;26811;53.160;8.202;2023-12-20T18:16:41;5.90;99.90
41060;DHT22;26811;53.160;8.202;2023-12-20T18:21:42;5.90;99.90
41060;DHT22;26811;53.160;8.202;2023-12-20T18:26:43;5.90;99.90
41060;DHT22;26811;53.160;8.202;2023-12-20T18:31:44;5.90;99.90
41060;DHT22;26811;53.160;8.202;2023-12-20T18:36:46;6.00;99.90
41060;DHT22;26811;53.160;8.202;2023-12-20T18:41:51;6.00;99.90
41060;DHT22;26811;53.160;8.202;2023-12-20T18:46:57;5.90;99.90
41060;DHT22;26811;53.160;8.202;2023-12-20T18:52:21;6.00;99.90
41060;DHT22;26811;53.160;8.202;2023-12-20T18:57:30;6.00;99.90
41060;DHT22;26811;53.160;8.202;2023-12-20T19:02:54;6.00;99.90
41060;DHT22;26811;53.160;8.202;2023-12-20T19:08:37;6.00;99.90
41060;DHT22;26811;53.160;8.202;2023-12-20T19:14:13;6.10;99.90
41060;DHT22;26811;53.160;8.202;2023-12-20T19:19:54;6.10;99.90
41060;DHT22;26811;53.160;8.202;2023-12-20T19:24:59;6.20;99.90
41060;DHT22;26811;53.160;8.202;2023-12-20T19:36:01;6.40;99.90
41060;DHT22;26811;53.160;8.202;2023-12-20T19:42:04;6.50;99.90
41060;DHT22;26811;53.160;8.202;2023-12-20T19:47:11;6.60;99.90
41060;DHT22;26811;53.160;8.202;2023-12-20T19:52:13;6.80;99.90
41060;DHT22;26811;53.160;8.202;2023-12-20T19:57:13;6.90;99.90
41060;DHT22;26811;53.160;8.202;2023-12-20T20:02:15;7.00;99.90
41060;DHT22;26811;53.160;8.202;2023-12-20T20:07:15;7.10;99.90
41060;DHT22;26811;53.160;8.202;2023-12-20T20:12:19;7.20;99.90
41060;DHT22;26811;53.160;8.202;2023-12-20T20:17:20;7.20;99.90
41060;DHT22;26811;53.160;8.202;2023-12-20T20:22:20;7.20;99.90
41060;DHT22;26811;53.160;8.202;2023-12-20T20:27:21;7.30;99.90
41060;DHT22;26811;53.160;8.202;2023-12-20T20:32:22;7.30;99.90
41060;DHT22;26811;53.160;8.202;2023-12-20T20:37:22;7.40;99.90
41060;DHT22;26811;53.160;8.202;2023-12-20T20:42:23;7.50;99.90
41060;DHT22;26811;53.160;8.202;2023-12-20T20:47:24;7.50;99.90
41060;DHT22;26811;53.160;8.202;2023-12-20T20:52:24;7.60;99.90
41060;DHT22;26811;53.160;8.202;2023-12-20T20:57:25;7.70;99.90
41060;DHT22;26811;53.160;8.202;2023-12-20T21:02:25;7.70;99.90
41060;DHT22;26811;53.160;8.202;2023-12-20T21:07:31;7.70;99.90
41060;DHT22;26811;53.160;8.202;2023-12-20T21:12:31;7.80;99.90
41060;DHT22;26811;53.160;8.202;2023-12-20T21:17:32;7.90;99.90
41060;DHT22;26811;53.160;8.202;2023-12-20T21:22:35;7.90;99.90
41060;DHT22;26811;53.160;8.202;2023-12-20T21:27:37;8.00;99.90
41060;DHT22;26811;53.160;8.202;2023-12-20T21:32:39;8.00;99.90
41060;DHT22;26811;53.160;8.202;2023-12-20T21:37:42;8.10;99.90
41060;DHT22;26811;53.160;8.202;2023-12-20T21:42:44;8.10;99.90
41060;DHT22;26811;53.160;8.202;2023-12-20T21:47:46;8.10;99.90
41060;DHT22;26811;53.160;8.202;2023-12-20T21:52:47;8.20;99.90
41060;DHT22;26811;53.160;8.202;2023-12-20T21:57:51;8.20;99.90
41060;DHT22;26811;53.160;8.202;2023-12-20T22:02:52;8.20;99.90
41060;DHT22;26811;53.160;8.202;2023-12-20T22:07:56;8.30;99.90
41060;DHT22;26811;53.160;8.202;2023-12-20T22:12:56;8.30;99.90
41060;DHT22;26811;53.160;8.202;2023-12-20T22:17:57;8.30;99.90
41060;DHT22;26811;53.160;8.202;2023-12-20T22:22:57;8.40;99.90
41060;DHT22;26811;53.160;8.202;2023-12-20T22:27:58;8.40;99.90
41060;DHT22;26811;53.160;8.202;2023-12-20T22:32:59;8.40;99.90
41060;DHT22;26811;53.160;8.202;2023-12-20T22:38:00;8.50;99.90
41060;DHT22;26811;53.160;8.202;2023-12-20T22:43:00;8.50;99.90
41060;DHT22;26811;53.160;8.202;2023-12-20T22:48:02;8.60;99.90
41060;DHT22;26811;53.160;8.202;2023-12-20T22:53:03;8.60;99.90
41060;DHT22;26811;53.160;8.202;2023-12-20T22:58:06;8.60;99.90
41060;DHT22;26811;53.160;8.202;2023-12-20T23:03:08;8.70;99.90
41060;DHT22;26811;53.160;8.202;2023-12-20T23:08:08;8.70;99.90
41060;DHT22;26811;53.160;8.202;2023-12-20T23:13:13;8.70;99.90
41060;DHT22;26811;53.160;8.202;2023-12-20T23:18:17;8.70;99.90
41060;DHT22;26811;53.160;8.202;2023-12-20T23:23:19;8.70;99.90
41060;DHT22;26811;53.160;8.202;2023-12-20T23:28:19;8.80;99.90
41060;DHT22;26811;53.160;8.202;2023-12-20T23:33:20;8.80;99.90
41060;DHT22;26811;53.160;8.202;2023-12-20T23:38:21;8.80;99.90
41060;DHT22;26811;53.160;8.202;2023-12-20T23:43:21;8.80;99.90
41060;DHT22;26811;53.160;8.202;2023-12-20T23:48:22;8.80;99.90
41060;DHT22;26811;53.160;8.202;2023-12-20T23:53:23;8.80;99.90
41060;DHT22;26811;53.160;8.202;2023-12-20T23:58:23;8.90;99.90
